sensor_id;sensor_type;location;lat;lon;timestamp;pressure;altitude;pressure_sealevel;temperature;humidity
9525;BME280;15940;48.734;9.112;2022-07-23T00:01:51;96615.81;;;23.15;53.57
9525;BME280;15940;48.734;9.112;2022-07-23T00:04:18;96630.94;;;23.14;53.43
9525;BME280;15940;48.734;9.112;2022-07-23T00:06:45;96624.91;;;23.07;53.35
9525;BME280;15940;48.734;9.112;2022-07-23T00:09:13;96617.59;;;23.02;53.19
9525;BME280;15940;48.734;9.112;2022-07-23T00:11:40;96606.38;;;23.00;53.47
9525;BME280;15940;48.734;9.112;2022-07-23T00:14:07;96604.44;;;22.93;54.76
9525;BME280;15940;48.734;9.112;2022-07-23T00:16:34;96610.06;;;22.86;54.14
9525;BME280;15940;48.734;9.112;2022-07-23T00:19:00;96617.66;;;22.77;55.11
9525;BME280;15940;48.734;9.112;2022-07-23T00:21:28;96606.09;;;22.71;55.31
9525;BME280;15940;48.734;9.112;2022-07-23T00:23:55;96614.06;;;22.67;55.25
9525;BME280;15940;48.734;9.112;2022-07-23T00:26:23;96606.03;;;22.62;55.52
9525;BME280;15940;48.734;9.112;2022-07-23T00:28:50;96608.31;;;22.56;55.73
9525;BME280;15940;48.734;9.112;2022-07-23T00:31:17;96604.31;;;22.49;55.76
9525;BME280;15940;48.734;9.112;2022-07-23T00:33:44;96608.75;;;22.44;57.00
9525;BME280;15940;48.734;9.112;2022-07-23T00:36:11;96608.16;;;22.29;58.66
9525;BME280;15940;48.734;9.112;2022-07-23T00:38:38;96607.22;;;22.09;60.73
9525;BME280;15940;48.734;9.112;2022-07-23T00:41:05;96596.75;;;21.75;63.35
9525;BME280;15940;48.734;9.112;2022-07-23T00:43:33;96586.59;;;21.52;63.04
9525;BME280;15940;48.734;9.112;2022-07-23T00:46:00;96555.63;;;21.36;65.41
9525;BME280;15940;48.734;9.112;2022-07-23T00:48:27;96561.00;;;21.19;65.51
9525;BME280;15940;48.734;9.112;2022-07-23T00:50:54;96564.75;;;21.06;67.28
9525;BME280;15940;48.734;9.112;2022-07-23T00:53:21;96583.66;;;21.02;66.24
9525;BME280;15940;48.734;9.112;2022-07-23T00:55:49;96580.22;;;20.94;65.68
9525;BME280;15940;48.734;9.112;2022-07-23T00:58:17;96584.81;;;20.92;66.50
9525;BME280;15940;48.734;9.112;2022-07-23T01:00:46;96582.59;;;20.90;66.27
9525;BME280;15940;48.734;9.112;2022-07-23T01:03:13;96579.13;;;20.90;65.76
9525;BME280;15940;48.734;9.112;2022-07-23T01:05:40;96576.53;;;20.92;65.08
9525;BME280;15940;48.734;9.112;2022-07-23T01:08:07;96570.47;;;20.93;65.21
9525;BME280;15940;48.734;9.112;2022-07-23T01:10:34;96585.72;;;20.94;64.68
9525;BME280;15940;48.734;9.112;2022-07-23T01:13:03;96565.50;;;20.99;65.46
9525;BME280;15940;48.734;9.112;2022-07-23T01:15:31;96539.28;;;20.91;65.01
9525;BME280;15940;48.734;9.112;2022-07-23T01:18:00;96554.50;;;20.92;65.91
9525;BME280;15940;48.734;9.112;2022-07-23T01:20:27;96544.22;;;20.92;65.85
9525;BME280;15940;48.734;9.112;2022-07-23T01:22:55;96556.38;;;20.89;64.51
9525;BME280;15940;48.734;9.112;2022-07-23T01:25:22;96553.44;;;20.87;64.40
9525;BME280;15940;48.734;9.112;2022-07-23T01:27:51;96559.13;;;20.89;65.85
9525;BME280;15940;48.734;9.112;2022-07-23T01:30:19;96548.09;;;20.89;64.57
9525;BME280;15940;48.734;9.112;2022-07-23T01:32:46;96515.78;;;20.90;64.39
9525;BME280;15940;48.734;9.112;2022-07-23T01:35:13;96494.34;;;20.88;64.26
9525;BME280;15940;48.734;9.112;2022-07-23T01:37:40;96476.19;;;20.85;63.87
9525;BME280;15940;48.734;9.112;2022-07-23T01:40:09;96522.41;;;20.87;66.45
9525;BME280;15940;48.734;9.112;2022-07-23T01:42:36;96521.50;;;20.84;65.76
9525;BME280;15940;48.734;9.112;2022-07-23T01:45:04;96505.75;;;20.85;66.55
9525;BME280;15940;48.734;9.112;2022-07-23T01:47:32;96504.63;;;20.80;66.04
9525;BME280;15940;48.734;9.112;2022-07-23T01:49:59;96511.28;;;20.77;66.45
9525;BME280;15940;48.734;9.112;2022-07-23T01:52:26;96529.81;;;20.76;66.35
9525;BME280;15940;48.734;9.112;2022-07-23T01:54:53;96542.63;;;20.74;66.00
9525;BME280;15940;48.734;9.112;2022-07-23T01:57:21;96553.47;;;20.72;65.94
9525;BME280;15940;48.734;9.112;2022-07-23T01:59:48;96550.38;;;20.68;66.00
9525;BME280;15940;48.734;9.112;2022-07-23T02:02:15;96544.16;;;20.67;65.89
9525;BME280;15940;48.734;9.112;2022-07-23T02:04:42;96536.97;;;20.64;66.17
9525;BME280;15940;48.734;9.112;2022-07-23T02:07:08;96523.44;;;20.59;65.85
9525;BME280;15940;48.734;9.112;2022-07-23T02:09:35;96536.47;;;20.58;66.68
9525;BME280;15940;48.734;9.112;2022-07-23T02:12:03;96544.72;;;20.58;66.57
9525;BME280;15940;48.734;9.112;2022-07-23T02:14:31;96562.53;;;20.57;65.82
9525;BME280;15940;48.734;9.112;2022-07-23T02:16:58;96566.38;;;20.54;66.17
9525;BME280;15940;48.734;9.112;2022-07-23T02:19:25;96563.63;;;20.46;65.73
9525;BME280;15940;48.734;9.112;2022-07-23T02:21:52;96571.69;;;20.44;66.92
9525;BME280;15940;48.734;9.112;2022-07-23T02:24:20;96578.13;;;20.39;66.96
9525;BME280;15940;48.734;9.112;2022-07-23T02:26:46;96583.44;;;20.37;66.31
9525;BME280;15940;48.734;9.112;2022-07-23T02:29:13;96593.50;;;20.35;66.73
9525;BME280;15940;48.734;9.112;2022-07-23T02:31:42;96602.31;;;20.33;66.51
9525;BME280;15940;48.734;9.112;2022-07-23T02:34:09;96606.00;;;20.28;66.68
9525;BME280;15940;48.734;9.112;2022-07-23T02:36:38;96621.38;;;20.23;67.00
9525;BME280;15940;48.734;9.112;2022-07-23T02:39:05;96627.63;;;20.24;67.84
9525;BME280;15940;48.734;9.112;2022-07-23T02:41:32;96632.78;;;20.20;67.98
9525;BME280;15940;48.734;9.112;2022-07-23T02:43:59;96629.28;;;20.19;67.21
9525;BME280;15940;48.734;9.112;2022-07-23T02:46:26;96638.28;;;20.20;67.53
9525;BME280;15940;48.734;9.112;2022-07-23T02:48:54;96645.97;;;20.21;67.73
9525;BME280;15940;48.734;9.112;2022-07-23T02:51:21;96641.75;;;20.20;67.53
9525;BME280;15940;48.734;9.112;2022-07-23T02:53:48;96632.22;;;20.21;67.74
9525;BME280;15940;48.734;9.112;2022-07-23T02:56:15;96633.84;;;20.24;67.37
9525;BME280;15940;48.734;9.112;2022-07-23T02:58:42;96638.47;;;20.30;66.94
9525;BME280;15940;48.734;9.112;2022-07-23T03:01:09;96642.66;;;20.31;66.54
9525;BME280;15940;48.734;9.112;2022-07-23T03:03:36;96641.56;;;20.34;66.70
9525;BME280;15940;48.734;9.112;2022-07-23T03:06:05;96645.59;;;20.40;66.40
9525;BME280;15940;48.734;9.112;2022-07-23T03:08:32;96648.34;;;20.40;66.45
9525;BME280;15940;48.734;9.112;2022-07-23T03:10:58;96654.25;;;20.44;66.16
9525;BME280;15940;48.734;9.112;2022-07-23T03:13:26;96654.41;;;20.46;65.95
9525;BME280;15940;48.734;9.112;2022-07-23T03:15:53;96657.72;;;20.45;66.15
9525;BME280;15940;48.734;9.112;2022-07-23T03:18:26;96659.41;;;20.48;65.92
9525;BME280;15940;48.734;9.112;2022-07-23T03:20:53;96660.69;;;20.47;66.71
9525;BME280;15940;48.734;9.112;2022-07-23T03:23:21;96656.09;;;20.49;66.11
9525;BME280;15940;48.734;9.112;2022-07-23T03:25:48;96640.13;;;20.48;66.10
9525;BME280;15940;48.734;9.112;2022-07-23T03:28:15;96634.63;;;20.48;66.10
9525;BME280;15940;48.734;9.112;2022-07-23T03:30:43;96637.19;;;20.46;66.26
9525;BME280;15940;48.734;9.112;2022-07-23T03:33:12;96633.16;;;20.47;66.82
9525;BME280;15940;48.734;9.112;2022-07-23T03:35:39;96632.22;;;20.44;66.31
9525;BME280;15940;48.734;9.112;2022-07-23T03:38:06;96628.00;;;20.43;66.70
9525;BME280;15940;48.734;9.112;2022-07-23T03:40:34;96632.03;;;20.42;66.75
9525;BME280;15940;48.734;9.112;2022-07-23T03:43:01;96641.38;;;20.39;66.62
9525;BME280;15940;48.734;9.112;2022-07-23T03:45:28;96632.56;;;20.33;66.05
9525;BME280;15940;48.734;9.112;2022-07-23T03:47:55;96643.75;;;20.27;66.94
9525;BME280;15940;48.734;9.112;2022-07-23T03:50:23;96635.72;;;20.30;66.68
9525;BME280;15940;48.734;9.112;2022-07-23T03:52:50;96626.91;;;20.23;66.20
9525;BME280;15940;48.734;9.112;2022-07-23T03:55:17;96634.06;;;20.19;66.01
9525;BME280;15940;48.734;9.112;2022-07-23T03:57:45;96641.91;;;20.15;65.99
9525;BME280;15940;48.734;9.112;2022-07-23T04:00:13;96640.47;;;20.14;66.45
9525;BME280;15940;48.734;9.112;2022-07-23T04:02:41;96651.09;;;20.17;66.83
9525;BME280;15940;48.734;9.112;2022-07-23T04:05:08;96659.72;;;20.21;66.16
9525;BME280;15940;48.734;9.112;2022-07-23T04:07:35;96654.41;;;20.23;66.92
9525;BME280;15940;48.734;9.112;2022-07-23T04:10:03;96653.09;;;20.24;66.81
9525;BME280;15940;48.734;9.112;2022-07-23T04:12:30;96649.44;;;20.22;65.98
9525;BME280;15940;48.734;9.112;2022-07-23T04:14:58;96657.88;;;20.24;66.92
9525;BME280;15940;48.734;9.112;2022-07-23T04:17:25;96656.41;;;20.23;66.73
9525;BME280;15940;48.734;9.112;2022-07-23T04:19:52;96660.06;;;20.18;66.30
9525;BME280;15940;48.734;9.112;2022-07-23T04:22:19;96665.38;;;20.16;66.59
9525;BME280;15940;48.734;9.112;2022-07-23T04:24:46;96670.88;;;20.16;66.77
9525;BME280;15940;48.734;9.112;2022-07-23T04:27:13;96662.81;;;20.18;67.27
9525;BME280;15940;48.734;9.112;2022-07-23T04:29:40;96671.28;;;20.20;66.52
9525;BME280;15940;48.734;9.112;2022-07-23T04:32:08;96667.06;;;20.19;66.87
9525;BME280;15940;48.734;9.112;2022-07-23T04:34:35;96674.19;;;20.22;66.49
9525;BME280;15940;48.734;9.112;2022-07-23T04:37:02;96666.31;;;20.26;66.67
9525;BME280;15940;48.734;9.112;2022-07-23T04:39:29;96658.63;;;20.24;66.58
9525;BME280;15940;48.734;9.112;2022-07-23T04:41:56;96651.66;;;20.23;66.02
9525;BME280;15940;48.734;9.112;2022-07-23T04:44:23;96661.00;;;20.20;66.50
9525;BME280;15940;48.734;9.112;2022-07-23T04:46:50;96656.25;;;20.21;66.74
9525;BME280;15940;48.734;9.112;2022-07-23T04:49:18;96658.63;;;20.24;66.93
9525;BME280;15940;48.734;9.112;2022-07-23T04:51:45;96657.50;;;20.27;66.71
9525;BME280;15940;48.734;9.112;2022-07-23T04:54:12;96659.34;;;20.33;66.49
9525;BME280;15940;48.734;9.112;2022-07-23T04:56:39;96656.78;;;20.35;65.42
9525;BME280;15940;48.734;9.112;2022-07-23T04:59:06;96652.75;;;20.36;66.32
9525;BME280;15940;48.734;9.112;2022-07-23T05:01:32;96658.63;;;20.40;66.27
9525;BME280;15940;48.734;9.112;2022-07-23T05:03:59;96664.69;;;20.46;65.98
9525;BME280;15940;48.734;9.112;2022-07-23T05:06:28;96652.06;;;20.50;65.94
9525;BME280;15940;48.734;9.112;2022-07-23T05:08:55;96652.41;;;20.54;65.60
9525;BME280;15940;48.734;9.112;2022-07-23T05:11:21;96654.59;;;20.56;65.13
9525;BME280;15940;48.734;9.112;2022-07-23T05:13:48;96664.34;;;20.57;64.82
9525;BME280;15940;48.734;9.112;2022-07-23T05:16:17;96678.47;;;20.61;65.54
9525;BME280;15940;48.734;9.112;2022-07-23T05:18:44;96679.38;;;20.64;65.06
9525;BME280;15940;48.734;9.112;2022-07-23T05:21:10;96661.78;;;20.67;65.36
9525;BME280;15940;48.734;9.112;2022-07-23T05:23:39;96675.31;;;20.72;65.35
9525;BME280;15940;48.734;9.112;2022-07-23T05:26:06;96681.38;;;20.78;65.28
9525;BME280;15940;48.734;9.112;2022-07-23T05:28:32;96680.28;;;20.81;65.11
9525;BME280;15940;48.734;9.112;2022-07-23T05:30:59;96677.69;;;20.91;65.21
9525;BME280;15940;48.734;9.112;2022-07-23T05:33:26;96681.16;;;20.99;63.89
9525;BME280;15940;48.734;9.112;2022-07-23T05:35:53;96681.88;;;21.07;64.30
9525;BME280;15940;48.734;9.112;2022-07-23T05:38:20;96689.75;;;21.11;64.25
9525;BME280;15940;48.734;9.112;2022-07-23T05:40:48;96687.94;;;21.14;64.29
9525;BME280;15940;48.734;9.112;2022-07-23T05:43:15;96687.75;;;21.11;64.49
9525;BME280;15940;48.734;9.112;2022-07-23T05:45:42;96687.75;;;21.11;64.36
9525;BME280;15940;48.734;9.112;2022-07-23T05:48:09;96691.44;;;21.14;64.12
9525;BME280;15940;48.734;9.112;2022-07-23T05:50:36;96684.25;;;21.11;64.89
9525;BME280;15940;48.734;9.112;2022-07-23T05:53:04;96696.38;;;21.16;64.91
9525;BME280;15940;48.734;9.112;2022-07-23T05:55:31;96699.31;;;21.18;63.98
9525;BME280;15940;48.734;9.112;2022-07-23T05:57:59;96696.16;;;21.21;63.90
9525;BME280;15940;48.734;9.112;2022-07-23T06:00:27;96697.81;;;21.32;64.32
9525;BME280;15940;48.734;9.112;2022-07-23T06:02:54;96700.56;;;21.39;63.99
9525;BME280;15940;48.734;9.112;2022-07-23T06:05:22;96693.94;;;21.43;63.61
9525;BME280;15940;48.734;9.112;2022-07-23T06:07:49;96691.69;;;21.49;63.27
9525;BME280;15940;48.734;9.112;2022-07-23T06:10:16;96687.84;;;21.52;62.67
9525;BME280;15940;48.734;9.112;2022-07-23T06:12:43;96682.28;;;21.59;63.08
9525;BME280;15940;48.734;9.112;2022-07-23T06:15:11;96685.19;;;21.69;63.87
9525;BME280;15940;48.734;9.112;2022-07-23T06:17:39;96671.94;;;21.75;63.83
9525;BME280;15940;48.734;9.112;2022-07-23T06:20:08;96667.50;;;21.80;64.17
9525;BME280;15940;48.734;9.112;2022-07-23T06:22:35;96662.00;;;21.80;63.34
9525;BME280;15940;48.734;9.112;2022-07-23T06:25:03;96679.25;;;21.80;63.58
9525;BME280;15940;48.734;9.112;2022-07-23T06:27:30;96685.44;;;21.88;63.72
9525;BME280;15940;48.734;9.112;2022-07-23T06:29:57;96699.56;;;22.00;63.73
9525;BME280;15940;48.734;9.112;2022-07-23T06:32:25;96699.88;;;22.12;63.78
9525;BME280;15940;48.734;9.112;2022-07-23T06:34:52;96697.28;;;22.14;63.49
9525;BME280;15940;48.734;9.112;2022-07-23T06:37:19;96711.66;;;22.12;61.94
9525;BME280;15940;48.734;9.112;2022-07-23T06:39:46;96708.44;;;22.23;61.83
9525;BME280;15940;48.734;9.112;2022-07-23T06:42:13;96704.91;;;22.31;61.30
9525;BME280;15940;48.734;9.112;2022-07-23T06:44:41;96709.56;;;22.45;61.67
9525;BME280;15940;48.734;9.112;2022-07-23T06:47:08;96721.50;;;22.56;60.10
9525;BME280;15940;48.734;9.112;2022-07-23T06:49:37;96721.09;;;22.59;59.54
9525;BME280;15940;48.734;9.112;2022-07-23T06:52:06;96722.38;;;22.58;60.39
9525;BME280;15940;48.734;9.112;2022-07-23T06:54:33;96730.56;;;22.48;60.31
9525;BME280;15940;48.734;9.112;2022-07-23T06:57:00;96721.19;;;22.44;61.17
9525;BME280;15940;48.734;9.112;2022-07-23T06:59:28;96735.97;;;22.39;61.50
9525;BME280;15940;48.734;9.112;2022-07-23T07:01:55;96735.22;;;22.38;61.48
9525;BME280;15940;48.734;9.112;2022-07-23T07:04:23;96749.41;;;22.35;61.39
9525;BME280;15940;48.734;9.112;2022-07-23T07:06:51;96745.75;;;22.32;60.85
9525;BME280;15940;48.734;9.112;2022-07-23T07:09:18;96756.91;;;22.42;60.99
9525;BME280;15940;48.734;9.112;2022-07-23T07:11:45;96761.13;;;22.43;60.42
9525;BME280;15940;48.734;9.112;2022-07-23T07:14:12;96750.81;;;22.43;60.37
9525;BME280;15940;48.734;9.112;2022-07-23T07:16:39;96740.78;;;22.31;59.80
9525;BME280;15940;48.734;9.112;2022-07-23T07:19:06;96731.50;;;22.18;59.84
9525;BME280;15940;48.734;9.112;2022-07-23T07:21:32;96728.94;;;22.05;60.08
9525;BME280;15940;48.734;9.112;2022-07-23T07:24:05;96727.00;;;21.90;60.67
9525;BME280;15940;48.734;9.112;2022-07-23T07:26:33;96740.81;;;21.83;60.96
9525;BME280;15940;48.734;9.112;2022-07-23T07:29:00;96744.50;;;21.78;60.84
9525;BME280;15940;48.734;9.112;2022-07-23T07:31:27;96734.59;;;21.75;61.54
9525;BME280;15940;48.734;9.112;2022-07-23T07:33:54;96732.25;;;21.71;62.05
9525;BME280;15940;48.734;9.112;2022-07-23T07:36:22;96735.16;;;21.81;62.11
9525;BME280;15940;48.734;9.112;2022-07-23T07:38:49;96753.59;;;22.03;61.98
9525;BME280;15940;48.734;9.112;2022-07-23T07:41:17;96761.38;;;22.37;60.24
9525;BME280;15940;48.734;9.112;2022-07-23T07:43:48;96762.56;;;22.76;59.88
9525;BME280;15940;48.734;9.112;2022-07-23T07:46:15;96761.09;;;23.00;59.06
9525;BME280;15940;48.734;9.112;2022-07-23T07:48:42;96768.94;;;23.29;56.82
9525;BME280;15940;48.734;9.112;2022-07-23T07:51:09;96784.00;;;23.53;58.37
9525;BME280;15940;48.734;9.112;2022-07-23T07:53:36;96789.31;;;23.76;58.08
9525;BME280;15940;48.734;9.112;2022-07-23T07:56:04;96792.22;;;23.95;57.88
9525;BME280;15940;48.734;9.112;2022-07-23T07:58:32;96786.63;;;23.68;57.44
9525;BME280;15940;48.734;9.112;2022-07-23T08:00:59;96790.59;;;23.92;57.65
9525;BME280;15940;48.734;9.112;2022-07-23T08:03:26;96809.09;;;23.72;57.67
9525;BME280;15940;48.734;9.112;2022-07-23T08:05:53;96809.88;;;23.65;56.94
9525;BME280;15940;48.734;9.112;2022-07-23T08:08:20;96813.34;;;23.48;56.65
9525;BME280;15940;48.734;9.112;2022-07-23T08:10:47;96810.56;;;23.31;56.11
9525;BME280;15940;48.734;9.112;2022-07-23T08:13:15;96806.69;;;23.09;58.14
9525;BME280;15940;48.734;9.112;2022-07-23T08:15:44;96812.53;;;22.96;58.48
9525;BME280;15940;48.734;9.112;2022-07-23T08:18:11;96812.31;;;22.69;58.37
9525;BME280;15940;48.734;9.112;2022-07-23T08:20:38;96808.31;;;22.62;59.39
9525;BME280;15940;48.734;9.112;2022-07-23T08:23:07;96800.47;;;22.51;58.61
9525;BME280;15940;48.734;9.112;2022-07-23T08:25:38;96790.25;;;22.36;58.63
9525;BME280;15940;48.734;9.112;2022-07-23T08:28:06;96793.09;;;22.21;59.17
9525;BME280;15940;48.734;9.112;2022-07-23T08:30:35;96800.84;;;22.15;60.55
9525;BME280;15940;48.734;9.112;2022-07-23T08:33:06;96795.25;;;22.30;60.15
9525;BME280;15940;48.734;9.112;2022-07-23T08:35:40;96794.59;;;22.47;60.93
9525;BME280;15940;48.734;9.112;2022-07-23T08:38:08;96789.78;;;22.80;59.48
9525;BME280;15940;48.734;9.112;2022-07-23T08:40:38;96795.94;;;22.96;57.00
9525;BME280;15940;48.734;9.112;2022-07-23T08:43:09;96793.13;;;23.03;56.52
9525;BME280;15940;48.734;9.112;2022-07-23T08:45:38;96797.91;;;23.45;58.32
9525;BME280;15940;48.734;9.112;2022-07-23T08:48:12;96797.09;;;23.87;57.28
9525;BME280;15940;48.734;9.112;2022-07-23T08:50:43;96793.31;;;24.27;55.32
9525;BME280;15940;48.734;9.112;2022-07-23T08:53:10;96795.88;;;24.69;54.47
9525;BME280;15940;48.734;9.112;2022-07-23T08:55:38;96785.97;;;25.02;52.12
9525;BME280;15940;48.734;9.112;2022-07-23T08:58:05;96798.59;;;24.96;53.04
9525;BME280;15940;48.734;9.112;2022-07-23T09:00:32;96793.22;;;24.98;52.09
9525;BME280;15940;48.734;9.112;2022-07-23T09:02:59;96798.28;;;24.92;52.13
9525;BME280;15940;48.734;9.112;2022-07-23T09:05:28;96792.13;;;24.74;52.05
9525;BME280;15940;48.734;9.112;2022-07-23T09:08:14;96798.28;;;24.92;51.88
9525;BME280;15940;48.734;9.112;2022-07-23T09:10:51;96787.31;;;25.11;49.08
9525;BME280;15940;48.734;9.112;2022-07-23T09:13:41;96789.19;;;25.09;48.99
9525;BME280;15940;48.734;9.112;2022-07-23T09:16:12;96798.31;;;25.01;49.73
9525;BME280;15940;48.734;9.112;2022-07-23T09:18:44;96796.25;;;25.48;49.79
9525;BME280;15940;48.734;9.112;2022-07-23T09:21:17;96786.22;;;25.82;47.15
9525;BME280;15940;48.734;9.112;2022-07-23T09:23:46;96791.41;;;26.36;45.94
9525;BME280;15940;48.734;9.112;2022-07-23T09:26:24;96788.25;;;26.70;44.83
9525;BME280;15940;48.734;9.112;2022-07-23T09:28:55;96778.91;;;26.97;44.65
9525;BME280;15940;48.734;9.112;2022-07-23T09:31:24;96783.41;;;27.33;43.33
9525;BME280;15940;48.734;9.112;2022-07-23T09:34:01;96786.19;;;27.33;42.47
9525;BME280;15940;48.734;9.112;2022-07-23T09:36:34;96778.44;;;27.53;43.16
9525;BME280;15940;48.734;9.112;2022-07-23T09:39:01;96779.22;;;27.65;43.63
9525;BME280;15940;48.734;9.112;2022-07-23T09:41:39;96776.63;;;28.12;43.64
9525;BME280;15940;48.734;9.112;2022-07-23T09:44:09;96765.66;;;28.26;42.25
9525;BME280;15940;48.734;9.112;2022-07-23T09:46:37;96762.50;;;28.20;43.98
9525;BME280;15940;48.734;9.112;2022-07-23T09:49:18;96753.97;;;28.39;43.82
9525;BME280;15940;48.734;9.112;2022-07-23T09:51:51;96757.44;;;28.28;42.15
9525;BME280;15940;48.734;9.112;2022-07-23T09:54:39;96762.25;;;28.15;42.60
9525;BME280;15940;48.734;9.112;2022-07-23T09:57:08;96763.50;;;28.24;42.81
9525;BME280;15940;48.734;9.112;2022-07-23T09:59:40;96759.41;;;28.37;42.85
9525;BME280;15940;48.734;9.112;2022-07-23T10:02:08;96757.50;;;28.63;41.61
9525;BME280;15940;48.734;9.112;2022-07-23T10:04:36;96758.09;;;28.85;40.99
9525;BME280;15940;48.734;9.112;2022-07-23T10:07:06;96758.69;;;29.18;41.76
9525;BME280;15940;48.734;9.112;2022-07-23T10:09:38;96761.47;;;29.30;41.44
9525;BME280;15940;48.734;9.112;2022-07-23T10:12:10;96759.88;;;29.50;40.99
9525;BME280;15940;48.734;9.112;2022-07-23T10:14:43;96767.97;;;29.46;40.69
9525;BME280;15940;48.734;9.112;2022-07-23T10:17:11;96761.53;;;29.55;40.70
9525;BME280;15940;48.734;9.112;2022-07-23T10:19:38;96769.75;;;29.65;40.12
9525;BME280;15940;48.734;9.112;2022-07-23T10:22:10;96766.38;;;29.92;40.49
9525;BME280;15940;48.734;9.112;2022-07-23T10:25:00;96767.34;;;29.97;40.96
9525;BME280;15940;48.734;9.112;2022-07-23T10:27:51;96768.38;;;29.78;39.50
9525;BME280;15940;48.734;9.112;2022-07-23T10:30:28;96768.41;;;29.29;41.17
9525;BME280;15940;48.734;9.112;2022-07-23T10:33:17;96771.06;;;28.68;41.87
9525;BME280;15940;48.734;9.112;2022-07-23T10:35:53;96764.22;;;28.25;43.31
9525;BME280;15940;48.734;9.112;2022-07-23T10:38:27;96767.31;;;27.74;43.39
9525;BME280;15940;48.734;9.112;2022-07-23T10:40:59;96770.03;;;27.63;45.13
9525;BME280;15940;48.734;9.112;2022-07-23T10:43:28;96771.47;;;27.85;45.08
9525;BME280;15940;48.734;9.112;2022-07-23T10:45:57;96761.59;;;28.38;43.58
9525;BME280;15940;48.734;9.112;2022-07-23T10:48:43;96757.25;;;28.35;43.72
9525;BME280;15940;48.734;9.112;2022-07-23T10:51:12;96755.69;;;28.56;42.37
9525;BME280;15940;48.734;9.112;2022-07-23T10:53:57;96763.59;;;28.94;42.06
9525;BME280;15940;48.734;9.112;2022-07-23T10:59:32;96756.97;;;29.48;40.97
9525;BME280;15940;48.734;9.112;2022-07-23T11:02:23;96755.34;;;29.57;41.96
9525;BME280;15940;48.734;9.112;2022-07-23T11:04:52;96758.88;;;29.83;40.73
9525;BME280;15940;48.734;9.112;2022-07-23T11:07:20;96753.81;;;30.05;40.00
9525;BME280;15940;48.734;9.112;2022-07-23T11:09:48;96755.31;;;29.94;42.13
9525;BME280;15940;48.734;9.112;2022-07-23T11:12:36;96746.31;;;29.96;40.84
9525;BME280;15940;48.734;9.112;2022-07-23T11:15:08;96747.34;;;30.14;41.14
9525;BME280;15940;48.734;9.112;2022-07-23T11:17:37;96760.91;;;30.20;40.22
9525;BME280;15940;48.734;9.112;2022-07-23T11:20:23;96763.44;;;29.65;41.33
9525;BME280;15940;48.734;9.112;2022-07-23T11:22:54;96761.22;;;29.26;41.21
9525;BME280;15940;48.734;9.112;2022-07-23T11:25:40;96757.63;;;29.12;42.27
9525;BME280;15940;48.734;9.112;2022-07-23T11:28:14;96764.19;;;28.81;42.36
9525;BME280;15940;48.734;9.112;2022-07-23T11:30:44;96763.63;;;28.26;41.39
9525;BME280;15940;48.734;9.112;2022-07-23T11:33:21;96757.75;;;28.10;43.67
9525;BME280;15940;48.734;9.112;2022-07-23T11:35:59;96760.53;;;28.10;42.92
9525;BME280;15940;48.734;9.112;2022-07-23T11:38:27;96755.91;;;28.03;42.96
9525;BME280;15940;48.734;9.112;2022-07-23T11:40:58;96758.06;;;27.93;43.07
9525;BME280;15940;48.734;9.112;2022-07-23T11:43:25;96756.97;;;27.86;43.94
9525;BME280;15940;48.734;9.112;2022-07-23T11:45:57;96760.41;;;27.75;43.53
9525;BME280;15940;48.734;9.112;2022-07-23T11:48:27;96771.97;;;27.60;45.57
9525;BME280;15940;48.734;9.112;2022-07-23T11:50:56;96767.78;;;27.49;45.66
9525;BME280;15940;48.734;9.112;2022-07-23T11:53:24;96755.78;;;27.47;45.10
9525;BME280;15940;48.734;9.112;2022-07-23T11:55:51;96752.50;;;27.39;44.91
9525;BME280;15940;48.734;9.112;2022-07-23T11:58:21;96749.25;;;27.21;46.31
9525;BME280;15940;48.734;9.112;2022-07-23T12:00:48;96749.22;;;27.64;44.95
9525;BME280;15940;48.734;9.112;2022-07-23T12:03:16;96751.34;;;28.08;45.93
9525;BME280;15940;48.734;9.112;2022-07-23T12:05:43;96750.44;;;28.50;44.62
9525;BME280;15940;48.734;9.112;2022-07-23T12:08:10;96742.22;;;29.11;42.20
9525;BME280;15940;48.734;9.112;2022-07-23T12:10:40;96741.16;;;29.53;40.59
9525;BME280;15940;48.734;9.112;2022-07-23T12:13:11;96741.81;;;29.77;40.89
9525;BME280;15940;48.734;9.112;2022-07-23T12:15:42;96744.75;;;29.67;40.40
9525;BME280;15940;48.734;9.112;2022-07-23T12:18:12;96740.13;;;29.23;39.45
9525;BME280;15940;48.734;9.112;2022-07-23T12:20:44;96743.78;;;28.79;41.01
9525;BME280;15940;48.734;9.112;2022-07-23T12:23:15;96741.38;;;28.50;41.63
9525;BME280;15940;48.734;9.112;2022-07-23T12:25:45;96736.75;;;28.31;43.66
9525;BME280;15940;48.734;9.112;2022-07-23T12:28:15;96740.28;;;27.98;43.77
9525;BME280;15940;48.734;9.112;2022-07-23T12:30:46;96749.09;;;27.95;42.71
9525;BME280;15940;48.734;9.112;2022-07-23T12:33:20;96734.63;;;27.75;43.18
9525;BME280;15940;48.734;9.112;2022-07-23T12:35:48;96736.63;;;27.63;44.49
9525;BME280;15940;48.734;9.112;2022-07-23T12:38:17;96735.25;;;27.52;42.61
9525;BME280;15940;48.734;9.112;2022-07-23T12:40:47;96747.06;;;27.41;44.52
9525;BME280;15940;48.734;9.112;2022-07-23T12:43:21;96741.56;;;27.31;45.02
9525;BME280;15940;48.734;9.112;2022-07-23T12:45:52;96746.53;;;27.32;44.42
9525;BME280;15940;48.734;9.112;2022-07-23T12:48:23;96747.25;;;27.33;44.94
9525;BME280;15940;48.734;9.112;2022-07-23T12:50:56;96744.06;;;27.27;44.33
9525;BME280;15940;48.734;9.112;2022-07-23T12:53:26;96738.84;;;27.43;45.13
9525;BME280;15940;48.734;9.112;2022-07-23T12:56:00;96751.53;;;27.88;45.35
9525;BME280;15940;48.734;9.112;2022-07-23T12:58:41;96753.63;;;28.11;44.95
9525;BME280;15940;48.734;9.112;2022-07-23T13:01:27;96739.59;;;28.09;44.00
9525;BME280;15940;48.734;9.112;2022-07-23T13:03:57;96754.00;;;28.06;43.53
9525;BME280;15940;48.734;9.112;2022-07-23T13:06:26;96744.25;;;28.40;43.82
9525;BME280;15940;48.734;9.112;2022-07-23T13:08:54;96752.31;;;28.81;43.14
9525;BME280;15940;48.734;9.112;2022-07-23T13:11:21;96754.84;;;29.12;42.75
9525;BME280;15940;48.734;9.112;2022-07-23T13:13:48;96749.94;;;29.24;41.49
9525;BME280;15940;48.734;9.112;2022-07-23T13:16:16;96753.06;;;29.42;40.85
9525;BME280;15940;48.734;9.112;2022-07-23T13:18:43;96764.63;;;29.73;40.51
9525;BME280;15940;48.734;9.112;2022-07-23T13:21:10;96753.91;;;29.81;37.78
9525;BME280;15940;48.734;9.112;2022-07-23T13:23:37;96750.38;;;29.55;39.16